Time;durP1;ratioP1;P1;durP2;ratioP2;P2;SDS_P1;SDS_P2;PMS_P1;PMS_P2;Temp;Humidity;BMP_temperature;BMP_pressure;BME280_temperature;BME280_humidity;BME280_pressure;Samples;Min_cycle;Max_cycle;Signal;HPM_P1;HPM_P2
2021/04/07 00:00:38;;;;;;;9.83;5.25;;;;;;;-0.78;67.59;99100.13;2180697;80;21552;-72
2021/04/07 00:03:40;;;;;;;8.80;4.92;;;;;;;-0.82;67.56;99096.09;2176323;80;21194;-71
2021/04/07 00:06:41;;;;;;;;;;;;;;;-0.87;67.77;99103.91;2176296;80;21577;-71
2021/04/07 00:09:42;;;;;;;13.85;5.60;;;;;;;-0.92;68.09;99110.31;2177917;80;20233;-71
2021/04/07 00:12:44;;;;;;;14.07;5.87;;;;;;;-0.95;69.11;99105.34;2179230;80;21145;-71
2021/04/07 00:15:45;;;;;;;13.85;5.85;;;;;;;-0.96;68.61;99106.30;2181898;80;21160;-71
2021/04/07 00:18:46;;;;;;;9.13;5.28;;;;;;;-0.99;68.53;99107.81;2168029;80;21217;-71
2021/04/07 00:21:48;;;;;;;8.40;4.67;;;;;;;-0.99;68.67;99107.81;2170058;80;21119;-71
2021/04/07 00:24:49;;;;;;;10.60;5.35;;;;;;;-1.00;68.90;99115.28;2163040;80;21458;-71
2021/04/07 00:28:02;;;;;;;;;;;;;;;-1.00;69.13;99116.58;2177553;80;21108;-71
2021/04/07 00:30:59;;;;;;;13.43;5.92;;;;;;;-0.99;69.15;99122.13;2163808;81;20199;-71
2021/04/07 00:34:01;;;;;;;11.15;5.60;;;;;;;-0.98;69.40;99125.59;2168664;80;21165;-70
2021/04/07 00:37:02;;;;;;;9.05;5.17;;;;;;;-0.98;68.87;99128.20;2165708;80;21191;-72
2021/04/07 00:40:06;;;;;;;8.90;5.30;;;;;;;-0.97;69.11;99121.55;2176505;80;21132;-70
2021/04/07 00:43:08;;;;;;;12.40;4.67;;;;;;;-0.96;69.40;99129.74;2163549;80;21157;-71
2021/04/07 00:46:09;;;;;;;10.98;5.00;;;;;;;-0.91;69.84;99134.58;2167856;81;21123;-71
2021/04/07 00:49:10;;;;;;;11.45;5.58;;;;;;;-0.86;69.84;99131.15;2171817;80;21529;-71
2021/04/07 00:52:12;;;;;;;13.80;5.40;;;;;;;-0.79;70.09;99137.56;2168020;80;21172;-71
2021/04/07 00:55:16;;;;;;;8.95;4.80;;;;;;;-0.71;69.47;99137.77;2170291;80;21161;-70
2021/04/07 00:58:17;;;;;;;9.15;5.75;;;;;;;-0.67;69.74;99129.27;2177555;80;21180;-72
2021/04/07 01:01:19;;;;;;;10.95;6.00;;;;;;;-0.62;70.18;99127.58;2166127;80;21193;-71
2021/04/07 01:04:20;;;;;;;13.25;5.30;;;;;;;-0.58;69.88;99125.11;2167940;80;21212;-71
2021/04/07 01:07:22;;;;;;;9.65;5.65;;;;;;;-0.56;69.69;99122.73;2145148;81;21534;-71
2021/04/07 01:10:24;;;;;;;8.58;5.37;;;;;;;-0.52;70.29;99118.93;2170339;80;21115;-71
2021/04/07 01:13:25;;;;;;;9.48;4.92;;;;;;;-0.50;70.38;99127.94;2166567;80;21058;-71
2021/04/07 01:16:27;;;;;;;10.32;5.28;;;;;;;-0.49;69.84;99128.28;2166284;80;21109;-72
2021/04/07 01:19:28;;;;;;;10.30;5.33;;;;;;;-0.45;69.93;99127.11;2170130;80;21209;-71
2021/04/07 01:22:32;;;;;;;8.65;5.40;;;;;;;-0.43;70.19;99130.88;2176880;80;21096;-71
2021/04/07 01:25:34;;;;;;;10.50;5.45;;;;;;;-0.43;70.07;99125.19;2177380;80;21101;-71
2021/04/07 01:28:36;;;;;;;9.33;5.03;;;;;;;-0.42;70.01;99132.53;2178850;80;21061;-71
2021/04/07 01:31:52;;;;;;;9.58;5.03;;;;;;;-0.43;70.36;99134.80;2150497;80;21108;-71
2021/04/07 01:34:53;;;;;;;9.18;5.25;;;;;;;-0.46;69.80;99136.69;2161521;80;21185;-72
2021/04/07 01:37:54;;;;;;;13.10;5.72;;;;;;;-0.52;70.23;99137.65;2160563;81;21151;-71
2021/04/07 01:40:56;;;;;;;8.80;5.08;;;;;;;-0.55;69.83;99137.89;2176521;80;21467;-72
2021/04/07 01:43:58;;;;;;;9.90;5.62;;;;;;;-0.61;70.03;99144.41;2177466;80;21619;-71
2021/04/07 01:47:01;;;;;;;10.70;5.53;;;;;;;-0.68;70.48;99145.82;2175507;80;21537;-72
2021/04/07 01:50:06;;;;;;;10.72;5.85;;;;;;;-0.70;70.28;99146.44;2179418;80;21165;-73
2021/04/07 01:53:12;;;;;;;10.40;5.83;;;;;;;-0.71;70.50;99151.27;2173195;80;21593;-72
2021/04/07 01:56:13;;;;;;;11.57;5.58;;;;;;;-0.71;70.14;99148.66;2174159;80;22546;-71
2021/04/07 01:59:18;;;;;;;10.45;5.58;;;;;;;-0.69;70.31;99151.99;2178848;80;21111;-73
2021/04/07 02:02:20;;;;;;;9.85;5.03;;;;;;;-0.69;70.50;99145.00;2179062;80;21085;-71
2021/04/07 02:05:21;;;;;;;8.93;4.85;;;;;;;-0.64;70.69;99148.56;2177299;80;21870;-71
2021/04/07 02:08:23;;;;;;;9.70;5.97;;;;;;;-0.65;71.25;99150.79;2178661;80;21069;-71
2021/04/07 02:11:24;;;;;;;8.20;4.45;;;;;;;-0.66;70.58;99156.14;2173332;80;21129;-71
2021/04/07 02:14:26;;;;;;;9.13;5.42;;;;;;;-0.67;70.87;99164.44;2162550;80;21176;-71
2021/04/07 02:17:27;;;;;;;11.03;5.70;;;;;;;-0.65;70.83;99166.91;2169860;81;21172;-72
2021/04/07 02:20:29;;;;;;;11.70;5.87;;;;;;;-0.63;70.79;99172.35;2174644;80;21110;-72
2021/04/07 02:23:30;;;;;;;8.70;5.28;;;;;;;-0.59;70.97;99171.63;2166080;80;21166;-72
2021/04/07 02:26:32;;;;;;;9.58;5.80;;;;;;;-0.56;71.52;99167.04;2171895;80;21619;-73
2021/04/07 02:29:34;;;;;;;7.60;5.20;;;;;;;-0.53;71.08;99169.40;2168539;80;21176;-72
2021/04/07 02:32:35;;;;;;;8.35;4.70;;;;;;;-0.47;71.10;99160.28;2175406;80;21079;-72
2021/04/07 02:35:37;;;;;;;7.25;5.25;;;;;;;-0.45;70.88;99157.08;2169431;80;21570;-72
2021/04/07 02:38:38;;;;;;;8.33;5.00;;;;;;;-0.40;70.54;99164.52;2171221;80;21100;-72
2021/04/07 02:41:39;;;;;;;8.18;4.45;;;;;;;-0.37;70.26;99167.71;2171823;80;21173;-72
2021/04/07 02:44:41;;;;;;;7.47;4.42;;;;;;;-0.36;70.30;99158.14;2170755;80;21557;-72
2021/04/07 02:47:42;;;;;;;7.45;4.70;;;;;;;-0.35;70.20;99159.78;2171326;80;21090;-72
2021/04/07 02:50:43;;;;;;;8.30;4.37;;;;;;;-0.33;70.03;99161.80;2173314;80;21107;-71
2021/04/07 02:53:44;;;;;;;7.33;4.80;;;;;;;-0.32;69.96;99166.06;2159933;80;21115;-71
2021/04/07 02:56:45;;;;;;;;;;;;;;;-0.28;69.93;99167.48;2151118;80;21173;-72
2021/04/07 02:59:49;;;;;;;5.05;4.20;;;;;;;-0.26;69.85;99166.39;2174256;80;20300;-73
2021/04/07 03:02:50;;;;;;;7.58;4.05;;;;;;;-0.24;69.85;99176.72;2175923;80;21094;-71
2021/04/07 03:05:51;;;;;;;;;;;;;;;-0.24;69.96;99181.92;2177050;80;21192;-71
2021/04/07 03:08:52;;;;;;;5.40;4.03;;;;;;;-0.21;69.77;99186.08;2171345;80;20136;-72
2021/04/07 03:11:54;;;;;;;7.92;4.25;;;;;;;-0.20;69.92;99181.20;2167626;81;21617;-71
2021/04/07 03:14:55;;;;;;;;;;;;;;;-0.19;69.75;99183.70;2174126;80;21273;-72
2021/04/07 03:17:56;;;;;;;8.53;3.98;;;;;;;-0.16;69.79;99182.64;2169804;80;20166;-72
2021/04/07 03:20:57;;;;;;;;;;;;;;;-0.13;69.61;99182.39;2180464;80;21176;-72
2021/04/07 03:23:58;;;;;;;8.38;5.12;;;;;;;-0.13;69.51;99185.00;2175204;80;20215;-73
2021/04/07 03:27:00;;;;;;;8.43;4.20;;;;;;;-0.11;69.56;99187.84;2173301;80;21134;-73
2021/04/07 03:30:01;;;;;;;9.28;4.75;;;;;;;-0.05;69.66;99190.44;2178950;80;21580;-73
2021/04/07 03:33:03;;;;;;;7.83;5.40;;;;;;;-0.05;69.56;99199.09;2174611;80;21184;-72
2021/04/07 03:36:06;;;;;;;8.53;5.03;;;;;;;-0.04;69.56;99186.87;2175678;80;21158;-71
2021/04/07 03:39:08;;;;;;;7.83;5.83;;;;;;;-0.03;69.48;99193.28;2174747;80;21161;-71
2021/04/07 03:42:09;;;;;;;8.05;5.60;;;;;;;-0.03;69.54;99190.67;2174291;80;21486;-72
2021/04/07 03:45:13;;;;;;;11.03;6.15;;;;;;;-0.01;69.58;99203.09;2177525;80;21161;-73
2021/04/07 03:48:17;;;;;;;11.70;6.25;;;;;;;0.01;69.80;99206.08;2176455;80;21133;-71
2021/04/07 03:51:18;;;;;;;8.65;5.83;;;;;;;0.02;69.73;99209.02;2174043;80;21112;-71
2021/04/07 03:54:20;;;;;;;8.25;6.10;;;;;;;0.01;69.96;99209.98;2177870;80;21728;-73
2021/04/07 03:57:21;;;;;;;8.70;6.47;;;;;;;0.02;69.77;99213.76;2175458;80;21576;-72
2021/04/07 04:00:22;;;;;;;10.65;6.40;;;;;;;0.03;70.00;99214.58;2175487;80;21157;-72
2021/04/07 04:03:24;;;;;;;9.25;6.30;;;;;;;0.03;70.15;99212.83;2177803;80;21519;-72
2021/04/07 04:06:25;;;;;;;10.58;6.40;;;;;;;0.04;70.15;99214.48;2177943;80;21208;-72
2021/04/07 04:09:27;;;;;;;10.80;6.33;;;;;;;0.05;70.19;99209.60;2180637;80;21158;-71
2021/04/07 04:12:28;;;;;;;9.15;5.90;;;;;;;0.06;69.87;99207.81;2179617;80;21221;-71
2021/04/07 04:15:29;;;;;;;9.18;5.92;;;;;;;0.10;69.84;99223.11;2176741;80;22224;-71
2021/04/07 04:18:31;;;;;;;7.45;6.15;;;;;;;0.10;70.02;99220.50;2135877;81;21173;-71
2021/04/07 04:21:32;;;;;;;11.53;5.67;;;;;;;0.09;69.86;99220.64;2137571;81;21149;-70
2021/04/07 04:24:34;;;;;;;7.80;5.87;;;;;;;0.08;69.69;99222.40;2126885;82;21163;-70
2021/04/07 04:27:35;;;;;;;6.42;4.75;;;;;;;0.11;69.79;99228.67;2100843;83;21752;-71
2021/04/07 04:30:36;;;;;;;6.70;5.35;;;;;;;0.12;69.66;99224.31;2177539;80;21089;-71
2021/04/07 04:33:38;;;;;;;6.92;5.40;;;;;;;0.11;69.44;99229.98;2176790;80;21165;-70
2021/04/07 04:36:39;;;;;;;7.22;4.83;;;;;;;0.13;69.40;99237.70;2177802;80;21204;-71
2021/04/07 04:39:41;;;;;;;7.20;4.78;;;;;;;0.14;69.33;99238.89;2180743;80;21091;-71
2021/04/07 04:42:42;;;;;;;9.45;5.08;;;;;;;0.15;69.15;99237.11;2178806;80;21058;-71
2021/04/07 04:45:44;;;;;;;8.08;4.72;;;;;;;0.16;69.09;99247.89;2176246;80;21085;-71
2021/04/07 04:48:45;;;;;;;7.00;4.72;;;;;;;0.17;69.30;99246.47;2160975;80;21058;-71
2021/04/07 04:51:46;;;;;;;7.75;4.22;;;;;;;0.18;69.15;99242.08;2177398;80;21190;-70
2021/04/07 04:54:48;;;;;;;5.95;3.95;;;;;;;0.18;68.99;99244.69;2182714;80;21141;-71
2021/04/07 04:57:50;;;;;;;8.48;4.65;;;;;;;0.19;69.21;99247.64;2179478;80;21146;-72
2021/04/07 05:00:51;;;;;;;9.08;4.70;;;;;;;0.16;69.02;99256.53;2181378;80;21106;-71
2021/04/07 05:03:52;;;;;;;6.20;4.92;;;;;;;0.18;69.06;99255.13;2179880;80;21505;-70
2021/04/07 05:06:54;;;;;;;8.70;5.08;;;;;;;0.18;69.07;99259.04;2181483;80;22002;-71
2021/04/07 05:09:55;;;;;;;9.00;5.37;;;;;;;0.17;69.13;99254.75;2178209;80;21213;-71
2021/04/07 05:12:56;;;;;;;8.00;5.00;;;;;;;0.16;68.95;99265.66;2178136;80;21127;-71
2021/04/07 05:15:58;;;;;;;8.60;4.80;;;;;;;0.18;68.95;99262.95;2185080;80;21087;-71
2021/04/07 05:19:00;;;;;;;7.42;5.35;;;;;;;0.25;69.19;99281.55;2178532;80;21506;-71
2021/04/07 05:22:01;;;;;;;6.92;4.87;;;;;;;0.25;69.05;99282.38;2179800;80;21109;-71
2021/04/07 05:25:04;;;;;;;7.80;5.33;;;;;;;0.29;69.03;99281.67;2177446;80;21224;-71
2021/04/07 05:28:07;;;;;;;5.70;4.28;;;;;;;0.29;68.91;99277.28;2172633;80;21566;-71
2021/04/07 05:31:10;;;;;;;6.75;5.05;;;;;;;0.30;68.97;99285.94;2176786;80;21704;-71
2021/04/07 05:34:11;;;;;;;7.87;5.08;;;;;;;0.34;69.07;99291.25;2173780;80;21110;-73
2021/04/07 05:37:13;;;;;;;6.70;5.03;;;;;;;0.37;69.12;99292.34;2153752;80;21124;-72
2021/04/07 05:40:14;;;;;;;8.35;5.28;;;;;;;0.40;68.95;99302.05;2181347;79;21085;-70
2021/04/07 05:43:16;;;;;;;6.80;5.10;;;;;;;0.40;69.24;99296.01;2178346;80;21172;-72
2021/04/07 05:46:17;;;;;;;9.00;5.00;;;;;;;0.36;69.45;99301.92;2179384;80;21608;-73
2021/04/07 05:49:19;;;;;;;7.80;5.33;;;;;;;0.35;69.55;99302.89;2176700;80;21172;-70
2021/04/07 05:52:20;;;;;;;8.65;6.20;;;;;;;0.42;69.51;99307.13;2164067;80;21120;-71
2021/04/07 05:55:21;;;;;;;6.85;5.53;;;;;;;0.54;69.47;99309.27;2177820;80;21156;-71
2021/04/07 05:58:26;;;;;;;9.10;5.60;;;;;;;0.83;69.44;99310.83;2180670;80;21105;-69
2021/04/07 06:01:28;;;;;;;11.93;6.92;;;;;;;0.91;69.31;99308.42;2162558;80;21530;-71
2021/04/07 06:04:29;;;;;;;12.82;7.37;;;;;;;0.90;69.23;99317.20;2183658;80;21617;-69
2021/04/07 06:07:30;;;;;;;10.60;7.05;;;;;;;0.88;69.30;99317.82;2171372;80;21640;-69
2021/04/07 06:10:33;;;;;;;14.73;7.58;;;;;;;0.88;69.37;99316.03;2174671;80;21156;-71
2021/04/07 06:13:34;;;;;;;12.03;7.55;;;;;;;0.81;70.11;99319.26;2176858;80;21590;-69
2021/04/07 06:16:39;;;;;;;10.93;6.87;;;;;;;0.72;70.10;99329.97;2167956;80;21102;-71
2021/04/07 06:19:40;;;;;;;13.05;6.92;;;;;;;0.64;70.74;99336.28;2145220;80;21134;-68
2021/04/07 06:22:42;;;;;;;10.93;7.08;;;;;;;0.57;71.29;99334.64;2171328;80;21113;-70
2021/04/07 06:25:44;;;;;;;13.95;8.03;;;;;;;0.46;71.66;99338.58;2175686;80;21093;-71
2021/04/07 06:28:45;;;;;;;9.88;7.60;;;;;;;0.40;72.11;99342.98;2179454;80;21601;-71
2021/04/07 06:31:46;;;;;;;12.60;7.03;;;;;;;0.34;72.85;99342.99;2176612;80;21177;-70
2021/04/07 06:34:48;;;;;;;12.63;7.97;;;;;;;0.31;72.50;99348.45;2178027;80;21176;-71
2021/04/07 06:37:50;;;;;;;11.38;6.70;;;;;;;0.25;72.46;99348.91;2184287;80;21186;-70
2021/04/07 06:40:53;;;;;;;11.55;6.65;;;;;;;0.23;74.53;99346.92;2181201;80;21147;-72
2021/04/07 06:43:56;;;;;;;9.13;6.05;;;;;;;0.14;74.56;99355.44;2180779;80;21696;-72
2021/04/07 06:46:58;;;;;;;8.53;6.20;;;;;;;0.07;74.84;99359.00;2169518;80;21521;-69
2021/04/07 06:50:00;;;;;;;14.43;7.90;;;;;;;0.09;74.36;99356.30;2182123;80;21185;-71
2021/04/07 06:53:05;;;;;;;12.75;8.15;;;;;;;0.25;74.49;99360.65;2177796;80;21486;-68
2021/04/07 06:56:08;;;;;;;12.90;7.60;;;;;;;0.76;74.99;99364.49;2180507;80;21109;-67
2021/04/07 06:59:10;;;;;;;12.47;7.15;;;;;;;0.93;74.25;99361.38;2150591;81;21175;-70
2021/04/07 07:02:13;;;;;;;12.58;8.25;;;;;;;1.01;73.97;99366.79;2171004;80;21165;-70
2021/04/07 07:05:17;;;;;;;10.98;8.05;;;;;;;1.06;73.55;99361.20;2166093;80;21595;-70
2021/04/07 07:08:19;;;;;;;15.72;8.63;;;;;;;1.02;73.44;99373.70;2163932;80;21164;-70
2021/04/07 07:11:20;;;;;;;14.85;8.98;;;;;;;1.01;73.29;99372.50;2179229;80;21116;-70
2021/04/07 07:14:23;;;;;;;13.68;8.40;;;;;;;0.95;73.07;99376.44;2179743;80;21078;-72
2021/04/07 07:17:35;;;;;;;12.82;7.90;;;;;;;1.17;73.30;99379.45;2181933;79;21161;-70
2021/04/07 07:20:41;;;;;;;13.83;8.13;;;;;;;1.32;72.90;99380.83;2177278;80;21164;-71
2021/04/07 07:23:46;;;;;;;14.58;8.23;;;;;;;1.51;72.48;99387.14;2165359;80;21689;-70
2021/04/07 07:26:48;;;;;;;10.40;7.15;;;;;;;1.75;72.19;99386.42;2179927;80;21185;-70
2021/04/07 07:29:55;;;;;;;12.25;5.62;;;;;;;1.86;71.78;99393.83;2177854;80;21190;-70
2021/04/07 07:32:57;;;;;;;11.75;6.80;;;;;;;2.19;71.25;99390.16;2177859;80;21621;-70
2021/04/07 07:36:09;;;;;;;12.40;6.70;;;;;;;2.28;70.94;99393.77;2184650;80;21637;-71
2021/04/07 07:39:10;;;;;;;14.68;6.35;;;;;;;2.36;70.85;99384.78;2174540;80;21188;-70
2021/04/07 07:42:12;;;;;;;13.85;6.95;;;;;;;2.42;70.18;99399.50;2177478;80;21125;-71
2021/04/07 07:45:17;;;;;;;10.93;5.78;;;;;;;2.75;70.20;99405.38;2177873;80;21463;-70
2021/04/07 07:48:19;;;;;;;12.82;6.53;;;;;;;2.93;69.51;99405.58;2177823;80;21169;-70
2021/04/07 07:51:23;;;;;;;12.45;5.35;;;;;;;2.89;68.74;99407.61;2175454;80;21165;-71
2021/04/07 07:54:25;;;;;;;11.63;5.35;;;;;;;2.80;68.31;99399.27;2179294;80;21943;-70
2021/04/07 07:57:27;;;;;;;16.42;7.47;;;;;;;2.74;67.51;99415.52;2178374;80;21142;-71
2021/04/07 08:00:29;;;;;;;10.65;5.97;;;;;;;2.66;67.91;99418.80;2148104;80;21640;-71
2021/04/07 08:03:31;;;;;;;18.75;7.53;;;;;;;2.49;67.34;99424.67;2177157;80;21101;-71
2021/04/07 08:06:33;;;;;;;10.82;5.75;;;;;;;2.37;67.54;99424.42;2177598;80;21110;-71
2021/04/07 08:09:35;;;;;;;11.40;5.62;;;;;;;2.26;67.59;99430.57;2178602;80;21184;-70
2021/04/07 08:12:37;;;;;;;10.08;5.62;;;;;;;2.20;67.15;99438.47;2178293;80;21509;-70
2021/04/07 08:15:39;;;;;;;10.32;5.78;;;;;;;2.22;67.35;99432.62;2156036;80;21202;-71
2021/04/07 08:18:42;;;;;;;13.88;7.03;;;;;;;2.30;67.65;99442.91;2159971;80;21531;-71
2021/04/07 08:21:46;;;;;;;8.95;4.60;;;;;;;2.43;67.80;99447.46;2182530;80;21119;-71
2021/04/07 08:24:48;;;;;;;7.40;5.40;;;;;;;2.49;66.46;99445.62;2185203;80;21156;-71
2021/04/07 08:27:55;;;;;;;13.85;5.62;;;;;;;2.53;66.25;99451.42;2172810;80;21241;-70
2021/04/07 08:30:56;;;;;;;13.22;5.85;;;;;;;2.74;66.60;99448.27;2166898;80;21105;-71
2021/04/07 08:34:02;;;;;;;9.03;5.10;;;;;;;2.88;66.13;99457.55;2174251;80;21965;-70
2021/04/07 08:37:04;;;;;;;11.88;5.42;;;;;;;2.92;65.39;99456.31;2180805;80;21115;-71
2021/04/07 08:40:17;;;;;;;11.03;5.30;;;;;;;3.00;64.77;99454.34;2171624;80;21196;-71
2021/04/07 08:43:19;;;;;;;9.03;5.25;;;;;;;3.06;64.61;99452.00;2162230;80;21141;-69
2021/04/07 08:46:27;;;;;;;15.40;5.70;;;;;;;3.08;64.26;99456.62;2178215;80;21053;-68
2021/04/07 08:49:36;;;;;;;14.93;5.10;;;;;;;3.03;63.43;99447.03;2182068;80;21553;-69
2021/04/07 08:52:50;;;;;;;6.87;4.58;;;;;;;2.81;64.51;99466.89;2173943;79;21142;-70
2021/04/07 08:55:54;;;;;;;12.40;5.47;;;;;;;2.58;64.89;99473.63;2145124;81;21164;-71
2021/04/07 08:59:02;;;;;;;12.93;5.80;;;;;;;2.45;65.07;99465.19;2174919;80;21160;-69
2021/04/07 09:02:07;;;;;;;8.33;4.35;;;;;;;2.51;64.41;99456.80;2180042;80;21510;-70
2021/04/07 09:05:11;;;;;;;9.60;4.87;;;;;;;2.51;64.90;99483.48;2177954;80;21113;-68
2021/04/07 09:08:18;;;;;;;9.53;5.53;;;;;;;2.37;65.18;99484.64;2154082;80;21125;-68
2021/04/07 09:11:39;;;;;;;12.78;5.80;;;;;;;2.21;65.64;99492.46;2170779;80;21093;-69
2021/04/07 09:14:41;;;;;;;11.55;5.67;;;;;;;2.12;65.74;99499.78;2179936;80;21161;-70
2021/04/07 09:17:50;;;;;;;10.90;6.03;;;;;;;2.14;65.91;99493.95;2175069;80;21115;-69
2021/04/07 09:20:53;;;;;;;11.70;5.42;;;;;;;2.24;66.16;99485.66;2162940;80;21173;-72
2021/04/07 09:24:03;;;;;;;10.05;4.83;;;;;;;2.40;66.30;99493.06;2178243;80;21133;-72
2021/04/07 09:27:09;;;;;;;11.63;5.00;;;;;;;2.71;65.65;99486.52;2177371;79;21496;-71
2021/04/07 09:30:12;;;;;;;9.45;5.00;;;;;;;2.89;64.18;99486.72;2173857;80;21620;-72
2021/04/07 09:33:19;;;;;;;13.15;5.22;;;;;;;2.86;63.30;99486.50;2178067;80;21162;-71
2021/04/07 09:36:27;;;;;;;7.90;4.58;;;;;;;2.76;64.00;99493.97;2177584;80;21572;-71
2021/04/07 09:39:30;;;;;;;12.90;6.45;;;;;;;2.60;64.94;99504.46;2177057;80;21593;-69
2021/04/07 09:42:31;;;;;;;10.80;5.50;;;;;;;2.44;65.22;99514.09;2181638;80;21806;-69
2021/04/07 09:45:33;;;;;;;9.95;5.30;;;;;;;2.39;65.71;99515.44;2163179;80;21227;-70
2021/04/07 09:48:53;;;;;;;7.60;4.72;;;;;;;2.40;65.89;99500.92;2184549;80;21129;-70
2021/04/07 09:51:56;;;;;;;11.25;6.12;;;;;;;2.46;65.96;99505.63;2179090;80;21090;-71
2021/04/07 09:54:57;;;;;;;8.70;5.15;;;;;;;2.81;66.93;99500.47;2165759;80;21593;-70
2021/04/07 09:58:03;;;;;;;11.63;5.47;;;;;;;3.56;67.15;99498.31;2177864;80;21119;-70
2021/04/07 10:01:05;;;;;;;12.85;5.10;;;;;;;4.11;65.09;99492.48;2167991;80;21093;-70
2021/04/07 10:04:07;;;;;;;11.18;5.45;;;;;;;4.59;63.90;99497.64;2178027;80;21066;-70
2021/04/07 10:07:20;;;;;;;4.97;3.33;;;;;;;4.71;61.98;99496.48;2178212;80;21184;-70
2021/04/07 10:10:25;;;;;;;7.97;2.70;;;;;;;4.80;59.90;99493.96;2173211;80;21524;-70
2021/04/07 10:13:27;;;;;;;7.65;3.12;;;;;;;4.60;57.83;99500.60;2178589;80;21176;-70
2021/04/07 10:16:38;;;;;;;15.20;6.33;;;;;;;4.40;58.16;99499.83;2173149;80;21105;-70
2021/04/07 10:19:41;;;;;;;10.00;3.77;;;;;;;4.37;57.11;99516.38;2176984;80;21118;-71
2021/04/07 10:22:46;;;;;;;9.98;3.60;;;;;;;4.23;56.98;99509.76;2173060;80;21221;-70
2021/04/07 10:25:53;;;;;;;12.00;5.40;;;;;;;4.15;57.26;99520.13;2161600;80;21070;-71
2021/04/07 10:29:00;;;;;;;8.88;4.45;;;;;;;4.14;57.31;99515.83;2148199;80;21058;-70
2021/04/07 10:32:01;;;;;;;7.12;3.40;;;;;;;4.29;57.97;99515.76;2125623;80;21192;-70
2021/04/07 10:35:04;;;;;;;7.90;4.30;;;;;;;4.48;55.60;99507.84;2158865;80;21591;-70
2021/04/07 10:38:14;;;;;;;6.65;2.52;;;;;;;4.53;56.71;99515.77;2160788;80;21130;-70
2021/04/07 10:41:16;;;;;;;7.90;3.40;;;;;;;4.58;56.20;99513.05;2177524;80;21837;-70
2021/04/07 10:44:30;;;;;;;5.55;2.52;;;;;;;4.51;56.50;99524.30;2179406;80;21661;-70
2021/04/07 10:47:39;;;;;;;6.85;3.17;;;;;;;4.55;54.89;99534.84;2171940;80;21131;-70
2021/04/07 10:50:41;;;;;;;5.58;2.83;;;;;;;4.59;56.07;99525.23;2179636;80;21092;-71
2021/04/07 10:53:43;;;;;;;11.03;3.00;;;;;;;4.63;55.21;99525.77;2174711;80;21148;-70
2021/04/07 10:56:44;;;;;;;8.45;3.85;;;;;;;4.63;55.23;99528.39;2182716;80;21105;-70
2021/04/07 10:59:46;;;;;;;4.47;2.77;;;;;;;4.62;54.91;99527.58;2176965;81;21109;-71
2021/04/07 11:02:47;;;;;;;8.15;3.02;;;;;;;4.61;54.87;99528.52;2176993;80;21149;-71
2021/04/07 11:05:49;;;;;;;8.13;2.60;;;;;;;4.71;55.43;99528.52;2177520;80;21137;-69
2021/04/07 11:08:52;;;;;;;3.87;2.37;;;;;;;4.69;54.10;99522.56;2171026;80;21708;-71
2021/04/07 11:11:54;;;;;;;5.75;3.05;;;;;;;4.37;55.90;99540.83;2178570;80;21681;-71
2021/04/07 11:14:56;;;;;;;4.05;2.12;;;;;;;4.01;56.87;99548.46;2157141;80;21200;-75
2021/04/07 11:17:57;;;;;;;4.75;2.40;;;;;;;3.62;58.02;99560.73;2175419;80;21159;-74
2021/04/07 11:20:58;;;;;;;4.97;3.05;;;;;;;3.32;58.69;99562.93;2174491;80;21549;-72
2021/04/07 11:24:00;;;;;;;7.12;3.20;;;;;;;3.12;60.06;99564.66;2173410;80;21158;-74
2021/04/07 11:27:01;;;;;;;8.55;3.55;;;;;;;3.01;60.81;99567.37;2176902;80;21713;-80
2021/04/07 11:30:05;;;;;;;6.85;3.45;;;;;;;3.01;61.93;99555.58;2176894;79;21138;-75
2021/04/07 11:33:08;;;;;;;10.58;3.22;;;;;;;3.24;61.60;99557.06;2177635;80;21168;-82
2021/04/07 11:39:34;;;;;;;6.17;3.72;;;;;;;3.78;61.16;99552.33;2180909;80;21585;-74
2021/04/07 11:42:46;;;;;;;7.30;3.08;;;;;;;4.43;61.95;99548.14;2174178;80;21113;-73
2021/04/07 11:45:34;;;;;;;5.70;2.87;;;;;;;4.67;59.60;99545.52;2169950;80;21146;-73
2021/04/07 11:48:35;;;;;;;8.85;3.52;;;;;;;4.56;59.66;99562.77;2160499;80;21605;-73
2021/04/07 11:51:39;;;;;;;9.83;2.83;;;;;;;4.32;59.97;99560.13;2179932;80;21493;-73
2021/04/07 11:54:41;;;;;;;4.40;2.50;;;;;;;4.21;59.70;99555.02;2179861;80;21094;-77
2021/04/07 11:57:43;;;;;;;12.00;3.62;;;;;;;4.31;59.28;99551.91;2177534;80;21145;-74
2021/04/07 12:00:44;;;;;;;15.72;6.47;;;;;;;4.54;60.25;99555.53;2177974;79;22294;-77
2021/04/07 12:03:46;;;;;;;8.53;2.80;;;;;;;4.92;59.86;99551.95;2177811;80;21125;-75
2021/04/07 12:06:47;;;;;;;11.80;2.90;;;;;;;5.25;57.08;99541.84;2178566;80;21133;-76
2021/04/07 12:09:48;;;;;;;5.15;2.10;;;;;;;5.05;55.53;99549.00;2182444;80;21165;-74
2021/04/07 12:12:51;;;;;;;7.42;2.70;;;;;;;5.14;54.18;99541.55;2171382;81;21122;-74
2021/04/07 12:15:52;;;;;;;10.23;2.58;;;;;;;5.34;53.62;99538.33;2172994;80;21322;-77
2021/04/07 12:18:54;;;;;;;4.80;2.30;;;;;;;5.27;54.56;99547.80;2176451;80;21453;-74
2021/04/07 12:21:56;;;;;;;4.30;2.40;;;;;;;5.29;54.62;99551.91;2165258;80;21209;-76
2021/04/07 12:24:58;;;;;;;11.93;3.10;;;;;;;5.49;54.09;99535.55;2184987;80;21179;-78
2021/04/07 12:27:59;;;;;;;6.87;2.45;;;;;;;5.57;54.19;99542.19;2179363;80;21124;-76
2021/04/07 12:31:01;;;;;;;6.65;2.90;;;;;;;5.75;54.41;99545.34;2180971;80;21568;-75
2021/04/07 12:34:03;;;;;;;6.87;2.52;;;;;;;5.58;52.46;99539.09;2161405;80;21127;-75
2021/04/07 12:37:05;;;;;;;7.28;2.65;;;;;;;5.22;51.17;99537.70;2182938;79;21189;-76
2021/04/07 12:40:07;;;;;;;7.60;3.17;;;;;;;4.91;52.70;99543.23;2181318;80;21443;-79
2021/04/07 12:43:08;;;;;;;7.25;3.40;;;;;;;4.80;53.49;99543.41;2177171;80;21129;-75
2021/04/07 12:46:17;;;;;;;4.87;2.37;;;;;;;4.97;52.49;99530.48;2142061;80;21133;-77
2021/04/07 12:49:18;;;;;;;4.17;1.75;;;;;;;5.05;52.07;99535.36;2175230;80;21830;-75
2021/04/07 12:52:19;;;;;;;5.83;2.67;;;;;;;5.01;51.56;99534.47;2171204;80;21168;-75
2021/04/07 12:55:20;;;;;;;5.30;1.90;;;;;;;5.04;51.80;99531.09;2182835;80;22434;-72
2021/04/07 12:58:22;;;;;;;8.25;2.33;;;;;;;5.11;51.55;99532.64;2178921;80;21192;-72
2021/04/07 13:01:24;;;;;;;6.87;3.10;;;;;;;4.95;51.21;99533.25;2170849;80;21113;-77
2021/04/07 13:04:25;;;;;;;5.67;2.60;;;;;;;4.90;51.11;99524.50;2179215;80;21122;-75
2021/04/07 13:07:26;;;;;;;7.47;2.83;;;;;;;5.15;52.44;99531.36;2178080;80;21136;-76
2021/04/07 13:10:29;;;;;;;4.58;2.27;;;;;;;5.42;52.63;99540.23;2178373;79;21139;-76
2021/04/07 13:13:30;;;;;;;6.62;2.92;;;;;;;5.69;51.60;99534.08;2179627;79;21172;-75
2021/04/07 13:16:31;;;;;;;3.72;2.12;;;;;;;5.85;52.04;99540.33;2180663;80;21502;-79
2021/04/07 13:19:33;;;;;;;3.65;2.17;;;;;;;5.98;52.11;99535.22;2176819;80;21501;-75
2021/04/07 13:22:35;;;;;;;7.83;2.70;;;;;;;6.03;50.74;99534.28;2180800;80;22391;-77
2021/04/07 13:25:36;;;;;;;10.25;3.00;;;;;;;6.03;49.33;99535.11;2180384;80;21111;-75
2021/04/07 13:28:38;;;;;;;7.53;2.15;;;;;;;6.04;48.22;99543.83;2175329;80;21144;-76
2021/04/07 13:31:39;;;;;;;5.53;1.85;;;;;;;5.92;49.13;99543.70;2159915;80;22541;-76
2021/04/07 13:37:59;;;;;;;7.20;2.98;;;;;;;5.87;48.17;99539.36;2176620;80;21081;-79
2021/04/07 13:44:00;;;;;;;8.68;3.42;;;;;;;5.83;48.43;99537.53;2175871;80;21683;-69
2021/04/07 13:47:02;;;;;;;7.87;3.00;;;;;;;5.75;48.23;99525.11;2177669;80;21165;-73
2021/04/07 13:50:08;;;;;;;5.00;2.52;;;;;;;5.60;48.48;99537.12;2177001;80;21141;-71
2021/04/07 13:53:14;;;;;;;6.30;3.12;;;;;;;5.53;48.59;99542.66;2185077;80;21204;-72
2021/04/07 13:56:24;;;;;;;5.58;2.60;;;;;;;5.64;48.20;99542.44;2180009;80;21597;-78
2021/04/07 13:59:18;;;;;;;6.25;2.77;;;;;;;5.75;48.59;99552.75;2176287;80;21122;-70
2021/04/07 14:02:20;;;;;;;8.80;3.58;;;;;;;5.88;49.00;99554.17;2176811;80;21154;-72
2021/04/07 14:05:21;;;;;;;8.08;4.12;;;;;;;5.84;49.82;99557.61;2172343;80;21175;-74
2021/04/07 14:08:24;;;;;;;8.38;4.67;;;;;;;5.71;49.90;99570.30;2179689;80;21134;-72
2021/04/07 14:11:27;;;;;;;8.73;4.30;;;;;;;5.53;50.16;99580.81;2111536;82;21577;-70
2021/04/07 14:14:28;;;;;;;6.65;3.58;;;;;;;5.37;50.71;99590.65;2169417;80;21168;-71
2021/04/07 14:17:29;;;;;;;5.12;3.15;;;;;;;4.89;53.09;99616.16;2176623;80;21146;-73
2021/04/07 14:20:31;;;;;;;7.17;3.62;;;;;;;4.21;55.44;99624.61;2168866;80;21304;-68
2021/04/07 14:23:33;;;;;;;7.53;3.58;;;;;;;3.76;55.49;99624.62;2138631;81;21655;-71
2021/04/07 14:26:34;;;;;;;10.20;5.30;;;;;;;3.53;56.08;99650.73;2115937;82;21098;-69
2021/04/07 14:29:36;;;;;;;15.78;6.55;;;;;;;3.21;60.76;99656.11;2123945;82;21635;-71
2021/04/07 14:32:38;;;;;;;14.53;7.28;;;;;;;2.86;60.72;99663.86;2122510;82;21668;-72
2021/04/07 14:35:40;;;;;;;10.20;4.30;;;;;;;2.58;62.84;99662.22;2126615;82;21202;-69